Terminal Aerodrome Forecast
Issued by NWS

Home | Current Version | Previous Version | Text Only | Print | Product List | Glossary On
Versions: 1 2 3 4 5 6 7 8 9 10 11 12 13 14 15 16 17
000
FTUS44 KLIX 040533
TAFMSY
TAF
KMSY 040533Z 0406/0506 12004KT P6SM SCT019 SCT250
     FM041200 12007KT P6SM SCT022
     FM041700 17008KT P6SM VCSH SCT035 BKN250
     FM050100 18005KT P6SM SCT090 BKN250=

USA.gov is the U.S. government's official web portal to all federal, state and local government web resources and services.